Time;durP1;ratioP1;P1;durP2;ratioP2;P2;SDS_P1;SDS_P2;PMS_P1;PMS_P2;Temp;Humidity;BMP_temperature;BMP_pressure;BME280_temperature;BME280_humidity;BME280_pressure;Samples;Min_cycle;Max_cycle;Signal;HPM_P1;HPM_P2
2021/01/24 00:01:33;;;;;;;22.20;13.80;;;;;;;1.80;100.00;98578.38;5219174;28;20071;-78
2021/01/24 00:04:03;;;;;;;19.70;13.18;;;;;;;1.69;100.00;98578.75;5224080;28;20020;-80
2021/01/24 00:06:34;;;;;;;18.08;13.00;;;;;;;1.68;100.00;98575.34;5225987;28;20025;-84
2021/01/24 00:09:05;;;;;;;19.02;13.05;;;;;;;1.82;100.00;98575.75;5225246;28;20155;-80
2021/01/24 00:11:35;;;;;;;18.17;12.20;;;;;;;2.10;100.00;98568.78;5225009;28;20100;-80
2021/01/24 00:14:05;;;;;;;20.02;13.57;;;;;;;2.08;100.00;98566.25;5209762;28;20147;-81
2021/01/24 00:16:36;;;;;;;20.08;13.25;;;;;;;2.21;100.00;98559.81;5225471;28;20040;-81
2021/01/24 00:19:06;;;;;;;18.48;13.15;;;;;;;2.30;100.00;98563.81;5225902;28;20072;-80
2021/01/24 00:21:37;;;;;;;23.10;13.63;;;;;;;2.25;100.00;98560.53;5225762;28;20040;-83
2021/01/24 00:24:08;;;;;;;20.92;13.60;;;;;;;2.31;100.00;98553.41;5225782;28;20083;-81
2021/01/24 00:26:38;;;;;;;24.08;14.00;;;;;;;2.07;100.00;98550.84;5207891;28;20021;-81
2021/01/24 00:29:08;;;;;;;23.17;13.82;;;;;;;1.83;100.00;98562.00;5225476;28;20029;-81
2021/01/24 00:31:39;;;;;;;23.77;14.45;;;;;;;1.63;100.00;98554.09;5225921;28;20357;-84
2021/01/24 00:34:09;;;;;;;19.58;13.85;;;;;;;1.94;100.00;98552.16;5223889;28;20055;-81
2021/01/24 00:36:40;;;;;;;20.48;13.77;;;;;;;1.85;100.00;98549.91;5225301;28;20025;-82
2021/01/24 00:39:10;;;;;;;22.98;14.30;;;;;;;1.89;100.00;98552.34;5220368;28;20037;-83
2021/01/24 00:41:40;;;;;;;19.58;12.93;;;;;;;2.16;100.00;98540.25;5225830;28;20051;-82
2021/01/24 00:44:11;;;;;;;19.58;13.48;;;;;;;2.13;100.00;98550.66;5225219;28;20025;-83
2021/01/24 00:46:41;;;;;;;21.25;13.30;;;;;;;2.32;100.00;98544.78;5225126;28;20029;-80
2021/01/24 00:49:11;;;;;;;18.55;12.00;;;;;;;2.05;100.00;98532.91;5206921;28;20036;-82
2021/01/24 00:51:41;;;;;;;19.33;13.10;;;;;;;1.93;100.00;98540.19;5225511;28;20060;-82
2021/01/24 00:54:12;;;;;;;21.05;13.23;;;;;;;1.86;100.00;98531.81;5225712;28;20086;-80
2021/01/24 00:56:42;;;;;;;20.23;13.07;;;;;;;1.77;100.00;98531.28;5225162;28;20025;-81
2021/01/24 00:59:12;;;;;;;19.10;13.13;;;;;;;1.73;100.00;98532.28;5225113;28;20029;-80
2021/01/24 01:01:42;;;;;;;21.73;13.32;;;;;;;1.76;100.00;98524.44;5225517;28;20112;-82
2021/01/24 01:04:13;;;;;;;21.50;14.07;;;;;;;1.73;100.00;98528.88;5223497;28;20064;-79
2021/01/24 01:06:43;;;;;;;21.90;14.55;;;;;;;1.78;100.00;98536.38;5222329;28;20021;-79
2021/01/24 01:09:13;;;;;;;22.70;14.30;;;;;;;1.84;100.00;98527.63;5221940;28;20033;-80
2021/01/24 01:11:44;;;;;;;19.45;12.85;;;;;;;1.97;100.00;98529.72;5222326;28;20049;-79
2021/01/24 01:14:15;;;;;;;18.10;12.70;;;;;;;1.89;100.00;98536.88;5233340;28;20391;-79
2021/01/24 01:16:45;;;;;;;20.00;13.07;;;;;;;1.83;100.00;98531.91;5229792;28;20024;-78
2021/01/24 01:19:15;;;;;;;19.23;12.18;;;;;;;1.88;100.00;98527.47;5221890;28;20048;-79
2021/01/24 01:21:46;;;;;;;19.83;13.38;;;;;;;1.85;100.00;98529.31;5221414;28;20120;-80
2021/01/24 01:24:16;;;;;;;20.52;12.73;;;;;;;1.82;100.00;98534.56;5221813;28;20523;-80
2021/01/24 01:26:46;;;;;;;19.67;13.25;;;;;;;1.83;100.00;98531.09;5220921;28;20469;-81
2021/01/24 01:29:17;;;;;;;21.63;13.40;;;;;;;1.90;100.00;98528.25;5222321;28;20376;-79
2021/01/24 01:31:47;;;;;;;19.42;13.07;;;;;;;1.86;100.00;98529.25;5225569;28;20036;-78
2021/01/24 01:34:17;;;;;;;19.98;12.57;;;;;;;1.87;100.00;98518.06;5225674;28;20095;-79
2021/01/24 01:36:48;;;;;;;18.33;12.35;;;;;;;1.77;100.00;98515.84;5222409;28;20033;-80
2021/01/24 01:39:18;;;;;;;20.02;13.82;;;;;;;1.70;100.00;98513.50;5225221;28;20511;-78
2021/01/24 01:41:48;;;;;;;18.08;12.57;;;;;;;1.85;100.00;98519.00;5225730;28;20162;-79
2021/01/24 01:44:19;;;;;;;20.35;13.02;;;;;;;1.83;100.00;98518.22;5219515;28;20025;-78
2021/01/24 01:46:52;;;;;;;19.33;12.27;;;;;;;1.94;100.00;98504.09;5224010;28;20025;-84
2021/01/24 01:49:24;;;;;;;21.08;13.15;;;;;;;1.94;100.00;98510.94;5224986;28;20483;-79
2021/01/24 01:51:54;;;;;;;18.80;12.65;;;;;;;1.80;100.00;98508.84;5225444;28;20112;-78
2021/01/24 01:54:25;;;;;;;22.63;13.00;;;;;;;1.78;100.00;98508.06;5225194;28;20183;-78
2021/01/24 01:56:55;;;;;;;17.00;11.98;;;;;;;1.94;100.00;98505.81;5225962;28;20027;-79
2021/01/24 01:59:25;;;;;;;19.80;12.02;;;;;;;1.89;100.00;98495.69;5224850;28;20503;-78
2021/01/24 02:02:15;;;;;;;17.45;11.63;;;;;;;2.03;100.00;98484.91;5224741;28;20060;-80
2021/01/24 02:04:56;;;;;;;16.10;11.10;;;;;;;2.04;100.00;98484.84;5206176;28;20028;-83
2021/01/24 02:07:46;;;;;;;15.52;11.05;;;;;;;2.04;100.00;98484.84;5225736;28;20033;-79
2021/01/24 02:10:30;;;;;;;19.23;12.23;;;;;;;2.05;100.00;98483.97;5218945;28;20025;-78
2021/01/24 02:13:07;;;;;;;19.45;11.80;;;;;;;1.83;100.00;98484.75;5225078;28;20025;-79
2021/01/24 02:15:42;;;;;;;18.70;11.98;;;;;;;2.10;100.00;98476.06;5225430;28;20431;-78
2021/01/24 02:18:14;;;;;;;17.17;11.30;;;;;;;2.04;100.00;98471.97;5223931;28;20029;-81
2021/01/24 02:21:05;;;;;;;17.05;11.48;;;;;;;1.87;100.00;98478.59;5224532;28;20036;-81
2021/01/24 02:23:37;;;;;;;20.35;12.70;;;;;;;1.77;100.00;98469.50;5224498;28;20021;-79
2021/01/24 02:26:36;;;;;;;23.83;12.55;;;;;;;1.89;100.00;98474.22;5225358;28;20031;-78
2021/01/24 02:29:28;;;;;;;20.67;12.25;;;;;;;1.96;100.00;98468.00;5224471;28;20028;-82
2021/01/24 02:32:02;;;;;;;19.83;11.82;;;;;;;1.82;100.00;98472.78;5230974;28;20522;-79
2021/01/24 02:34:35;;;;;;;17.75;11.65;;;;;;;1.88;100.00;98478.56;5224255;28;20029;-80
2021/01/24 02:37:06;;;;;;;18.02;11.80;;;;;;;1.75;100.00;98476.44;5224652;28;20104;-80
2021/01/24 02:39:37;;;;;;;18.73;11.35;;;;;;;1.64;100.00;98473.41;5223511;28;20470;-80
2021/01/24 02:42:09;;;;;;;20.67;12.98;;;;;;;1.73;100.00;98472.25;5223150;28;20037;-78
2021/01/24 02:44:40;;;;;;;17.42;11.75;;;;;;;1.72;100.00;98466.25;5217055;28;20577;-82
2021/01/24 02:47:11;;;;;;;17.35;11.18;;;;;;;1.84;100.00;98470.97;5224377;28;20212;-80
2021/01/24 02:49:45;;;;;;;20.55;12.65;;;;;;;1.70;100.00;98462.88;5224459;28;20029;-79
2021/01/24 02:52:17;;;;;;;18.25;12.10;;;;;;;1.80;100.00;98467.66;5224235;28;20055;-78
2021/01/24 02:54:48;;;;;;;19.08;12.13;;;;;;;1.72;100.00;98463.69;5223942;28;20021;-79
2021/01/24 02:57:18;;;;;;;15.93;11.30;;;;;;;1.67;100.00;98468.16;5223715;28;20190;-78
2021/01/24 02:59:49;;;;;;;17.55;11.68;;;;;;;1.80;100.00;98465.09;5223828;28;20116;-80
2021/01/24 03:02:20;;;;;;;17.33;11.85;;;;;;;1.91;100.00;98463.00;5224132;28;20102;-81
2021/01/24 03:04:50;;;;;;;16.75;11.73;;;;;;;1.76;100.00;98470.41;5205851;28;20024;-80
2021/01/24 03:07:21;;;;;;;19.52;11.63;;;;;;;1.82;100.00;98467.63;5224183;28;20107;-78
2021/01/24 03:09:51;;;;;;;17.45;11.38;;;;;;;1.90;100.00;98473.34;5223946;28;20394;-79
2021/01/24 03:12:27;;;;;;;19.10;11.20;;;;;;;1.78;100.00;98486.63;5223953;28;20025;-81
2021/01/24 03:14:59;;;;;;;17.73;11.68;;;;;;;1.75;100.00;98483.34;5223108;28;20017;-81
2021/01/24 03:17:33;;;;;;;17.10;11.73;;;;;;;1.69;100.00;98476.66;5222981;28;20021;-79
2021/01/24 03:20:05;;;;;;;18.13;11.63;;;;;;;1.78;100.00;98484.03;5223547;28;20096;-78
2021/01/24 03:22:37;;;;;;;19.92;11.80;;;;;;;1.62;100.00;98482.91;5222755;28;20023;-80
2021/01/24 03:25:08;;;;;;;21.23;13.40;;;;;;;1.62;100.00;98475.19;5222802;28;20057;-79
2021/01/24 03:27:38;;;;;;;18.92;12.80;;;;;;;1.67;100.00;98478.44;5223348;28;20031;-79
2021/01/24 03:30:11;;;;;;;19.92;13.18;;;;;;;1.73;100.00;98469.69;5223017;28;20033;-81
2021/01/24 03:32:42;;;;;;;20.90;14.00;;;;;;;1.72;100.00;98471.41;5222180;28;20035;-78
2021/01/24 03:35:13;;;;;;;21.88;13.68;;;;;;;1.68;100.00;98467.25;5223822;28;20013;-78
2021/01/24 03:37:43;;;;;;;21.95;13.30;;;;;;;1.80;100.00;98479.72;5223121;28;20035;-80
2021/01/24 03:40:13;;;;;;;24.23;13.70;;;;;;;1.90;100.00;98476.78;5222941;28;20415;-79
2021/01/24 03:42:44;;;;;;;21.77;14.00;;;;;;;1.91;100.00;98469.88;5222245;28;20021;-81
2021/01/24 03:45:16;;;;;;;20.23;14.07;;;;;;;1.61;100.00;98467.50;5223092;28;20083;-81
2021/01/24 03:47:46;;;;;;;19.58;13.10;;;;;;;1.64;100.00;98467.41;5223033;28;20039;-81
2021/01/24 03:50:17;;;;;;;23.77;14.52;;;;;;;1.66;100.00;98461.31;5221701;28;20029;-78
2021/01/24 03:52:47;;;;;;;22.30;14.23;;;;;;;1.54;100.00;98464.31;5222126;28;20033;-78
2021/01/24 03:55:17;;;;;;;24.67;14.10;;;;;;;1.60;100.00;98456.38;5205056;28;20028;-80
2021/01/24 03:57:48;;;;;;;21.88;14.35;;;;;;;1.63;100.00;98455.44;5222012;28;20017;-81
2021/01/24 04:00:18;;;;;;;21.67;14.60;;;;;;;1.59;100.00;98457.25;5222438;28;20510;-80
2021/01/24 04:02:49;;;;;;;24.67;15.20;;;;;;;1.46;100.00;98450.88;5221690;28;20051;-79
2021/01/24 04:05:19;;;;;;;24.92;14.10;;;;;;;1.60;100.00;98456.38;5221571;28;20063;-78
2021/01/24 04:07:49;;;;;;;22.25;14.95;;;;;;;1.62;100.00;98452.03;5222789;28;20035;-79
2021/01/24 04:10:20;;;;;;;23.58;15.25;;;;;;;1.57;100.00;98455.66;5222816;28;20029;-78
2021/01/24 04:12:50;;;;;;;24.70;15.02;;;;;;;1.50;100.00;98459.31;5222675;28;20059;-78
2021/01/24 04:15:20;;;;;;;25.45;15.15;;;;;;;1.45;100.00;98456.91;5223370;28;20031;-82
2021/01/24 04:17:50;;;;;;;23.85;15.63;;;;;;;1.48;100.00;98453.38;5223040;28;20029;-81
2021/01/24 04:20:21;;;;;;;25.50;15.50;;;;;;;1.47;100.00;98451.69;5222853;28;20028;-81
2021/01/24 04:22:51;;;;;;;26.70;16.50;;;;;;;1.52;100.00;98450.66;5222134;28;20025;-80
2021/01/24 04:25:23;;;;;;;25.88;16.08;;;;;;;1.45;100.00;98443.19;5225716;28;20525;-80
2021/01/24 04:27:54;;;;;;;24.73;16.05;;;;;;;1.37;100.00;98443.44;5222661;28;20059;-81
2021/01/24 04:30:24;;;;;;;24.25;15.85;;;;;;;1.34;100.00;98448.69;5222658;28;20059;-80
2021/01/24 04:32:54;;;;;;;25.52;15.68;;;;;;;1.46;100.00;98442.28;5222197;28;20017;-78
2021/01/24 04:35:25;;;;;;;20.77;14.77;;;;;;;1.55;100.00;98442.00;5221981;28;20063;-80
2021/01/24 04:37:55;;;;;;;25.23;15.80;;;;;;;1.82;100.00;98442.72;5221704;28;20024;-80
2021/01/24 04:40:26;;;;;;;24.20;14.75;;;;;;;1.83;100.00;98444.38;5221835;28;20056;-79
2021/01/24 04:42:56;;;;;;;21.92;14.02;;;;;;;1.95;100.00;98437.97;5222164;28;20048;-78
2021/01/24 04:45:27;;;;;;;22.73;15.30;;;;;;;1.87;100.00;98432.25;5222348;28;20033;-78
2021/01/24 04:47:57;;;;;;;21.75;14.20;;;;;;;1.87;100.00;98435.69;5221476;28;20048;-79
2021/01/24 04:50:29;;;;;;;23.75;14.30;;;;;;;1.93;100.00;98434.59;5222100;28;20029;-80
2021/01/24 04:52:59;;;;;;;22.65;14.93;;;;;;;1.78;100.00;98438.56;5221922;28;20040;-84
2021/01/24 04:55:30;;;;;;;23.38;15.25;;;;;;;1.74;100.00;98425.84;5224198;28;20029;-80
2021/01/24 04:58:01;;;;;;;22.80;15.25;;;;;;;1.76;100.00;98431.78;5221619;28;20027;-79
2021/01/24 05:00:31;;;;;;;25.35;16.60;;;;;;;1.70;100.00;98426.84;5207212;28;20039;-83
2021/01/24 05:03:03;;;;;;;25.60;17.08;;;;;;;1.67;100.00;98426.97;5221239;28;20025;-78
2021/01/24 05:05:33;;;;;;;27.25;16.63;;;;;;;1.70;100.00;98429.44;5225347;28;20056;-80
2021/01/24 05:08:08;;;;;;;28.30;17.92;;;;;;;1.61;100.00;98432.31;5225103;28;20048;-78
2021/01/24 05:10:38;;;;;;;26.65;17.92;;;;;;;1.56;100.00;98434.22;5226281;28;20443;-80
2021/01/24 05:13:09;;;;;;;26.60;16.92;;;;;;;1.48;100.00;98430.22;5226235;28;20116;-80
2021/01/24 05:15:39;;;;;;;29.35;18.63;;;;;;;1.47;100.00;98429.38;5226024;28;20029;-79
2021/01/24 05:18:09;;;;;;;29.85;18.15;;;;;;;1.48;100.00;98435.34;5219893;28;20195;-80
2021/01/24 05:20:43;;;;;;;27.60;18.15;;;;;;;1.49;100.00;98429.31;5227060;28;20025;-79
2021/01/24 05:23:13;;;;;;;29.95;19.05;;;;;;;1.46;100.00;98430.28;5226056;28;20035;-82
2021/01/24 05:25:43;;;;;;;28.95;18.05;;;;;;;1.47;100.00;98429.38;5227915;28;20387;-81
2021/01/24 05:28:25;;;;;;;29.10;17.98;;;;;;;1.45;100.00;98431.19;5227160;28;20071;-81
2021/01/24 05:31:06;;;;;;;28.77;17.70;;;;;;;1.37;100.00;98430.56;5227204;28;20099;-82
2021/01/24 05:33:43;;;;;;;27.27;17.50;;;;;;;1.33;100.00;98431.56;5229163;28;20020;-82
2021/01/24 05:36:13;;;;;;;29.00;18.42;;;;;;;1.32;100.00;98435.03;5228153;28;20111;-80
2021/01/24 05:38:43;;;;;;;32.13;19.33;;;;;;;1.21;100.00;98431.97;5222814;28;20135;-79
2021/01/24 05:41:14;;;;;;;29.55;18.65;;;;;;;1.26;100.00;98435.22;5225426;28;20056;-79
2021/01/24 05:43:44;;;;;;;29.58;19.50;;;;;;;1.27;100.00;98431.75;5223908;28;20033;-79
2021/01/24 05:46:15;;;;;;;29.02;19.27;;;;;;;1.23;100.00;98430.19;5225070;28;20025;-80
2021/01/24 05:48:50;;;;;;;29.42;19.08;;;;;;;1.29;100.00;98440.28;5224168;28;20112;-79
2021/01/24 05:51:20;;;;;;;29.13;19.33;;;;;;;1.31;100.00;98438.50;5225309;28;20020;-78
2021/01/24 05:53:50;;;;;;;30.23;19.52;;;;;;;1.30;100.00;98435.97;5225065;28;20032;-79
2021/01/24 05:56:21;;;;;;;30.50;19.63;;;;;;;1.17;100.00;98435.53;5231422;28;20108;-81
2021/01/24 05:59:01;;;;;;;31.08;19.70;;;;;;;1.18;100.00;98447.50;5226399;28;20040;-79
2021/01/24 06:01:32;;;;;;;33.63;19.50;;;;;;;1.06;100.00;98447.06;5230672;28;20028;-80
2021/01/24 06:04:02;;;;;;;32.45;19.52;;;;;;;1.04;100.00;98446.28;5237055;28;20028;-80
2021/01/24 06:06:32;;;;;;;33.92;20.38;;;;;;;1.05;100.00;98450.53;5224878;28;20648;-80
2021/01/24 06:09:03;;;;;;;34.55;20.77;;;;;;;1.05;100.00;98451.34;5224964;28;20532;-78
2021/01/24 06:11:34;;;;;;;32.58;20.55;;;;;;;1.01;100.00;98448.94;5221953;28;20480;-80
2021/01/24 06:14:07;;;;;;;31.33;19.95;;;;;;;1.03;100.00;98453.13;5224457;28;20048;-80
2021/01/24 06:16:40;;;;;;;31.60;20.17;;;;;;;0.91;100.00;98453.50;5224694;28;20106;-80
2021/01/24 06:19:10;;;;;;;31.50;20.65;;;;;;;0.92;100.00;98460.34;5227803;28;20502;-79
2021/01/24 06:21:47;;;;;;;30.77;19.67;;;;;;;1.13;100.00;98459.69;5225195;28;20024;-79
2021/01/24 06:24:23;;;;;;;29.40;19.02;;;;;;;1.19;100.00;98456.91;5224435;28;20160;-79
2021/01/24 06:26:58;;;;;;;30.23;18.83;;;;;;;1.30;100.00;98457.41;5207132;28;20593;-78
2021/01/24 06:29:30;;;;;;;31.10;20.27;;;;;;;1.40;100.00;98458.75;5223879;28;20029;-81
2021/01/24 06:32:00;;;;;;;31.98;19.65;;;;;;;1.57;100.00;98456.47;5224516;28;20017;-78
2021/01/24 06:34:39;;;;;;;29.42;19.27;;;;;;;1.27;100.00;98466.94;5223859;28;20032;-78
2021/01/24 06:37:14;;;;;;;31.80;19.92;;;;;;;1.27;100.00;98472.09;5224855;28;20074;-79
2021/01/24 06:39:53;;;;;;;33.08;21.60;;;;;;;0.98;100.00;98469.59;5225788;28;20502;-78
2021/01/24 06:42:41;;;;;;;34.35;21.90;;;;;;;0.89;100.00;98480.19;5224254;28;20033;-78
2021/01/24 06:45:24;;;;;;;38.60;21.98;;;;;;;0.80;100.00;98475.31;5224000;28;20108;-81
2021/01/24 06:47:56;;;;;;;34.60;22.52;;;;;;;0.81;100.00;98472.69;5224290;28;20031;-81
2021/01/24 06:50:49;;;;;;;37.13;23.00;;;;;;;0.88;100.00;98479.31;5224594;28;20025;-80
2021/01/24 06:53:25;;;;;;;33.85;22.30;;;;;;;0.91;100.00;98486.94;5223648;28;20024;-79
2021/01/24 06:55:55;;;;;;;35.58;23.20;;;;;;;0.93;100.00;98492.03;5222719;28;20471;-78
2021/01/24 06:58:33;;;;;;;35.67;22.95;;;;;;;1.07;100.00;98495.84;5223988;28;20044;-80
2021/01/24 07:01:23;;;;;;;34.22;21.83;;;;;;;1.06;100.00;98498.50;5223658;28;20300;-78
2021/01/24 07:04:23;;;;;;;33.22;20.77;;;;;;;1.23;100.00;98498.81;5221990;28;20498;-80
2021/01/24 07:06:54;;;;;;;31.05;20.65;;;;;;;1.23;100.00;98504.78;5221042;28;20028;-83
2021/01/24 07:09:24;;;;;;;32.13;20.55;;;;;;;1.52;100.00;98514.97;5223935;28;20025;-81
2021/01/24 07:11:56;;;;;;;27.58;17.52;;;;;;;1.43;100.00;98515.25;5223908;28;20023;-80
2021/01/24 07:14:32;;;;;;;25.15;17.15;;;;;;;1.26;100.00;98527.81;5222528;28;20535;-82
2021/01/24 07:17:11;;;;;;;26.33;17.65;;;;;;;1.15;100.00;98524.75;5222042;28;20063;-80
2021/01/24 07:19:49;;;;;;;29.90;17.42;;;;;;;1.16;100.00;98526.44;5220313;28;20434;-80
2021/01/24 07:22:20;;;;;;;28.00;17.80;;;;;;;1.04;100.00;98537.09;5222859;28;20120;-79
2021/01/24 07:24:53;;;;;;;28.17;17.50;;;;;;;1.29;100.00;98532.91;5205070;28;20017;-81
2021/01/24 07:27:28;;;;;;;27.48;17.92;;;;;;;1.54;100.00;98535.53;5203992;28;20021;-78
2021/01/24 07:29:58;;;;;;;27.88;18.08;;;;;;;1.55;100.00;98530.31;5223675;28;20079;-79
2021/01/24 07:32:29;;;;;;;27.88;18.08;;;;;;;1.68;100.00;98536.75;5222950;28;20483;-80
2021/01/24 07:35:00;;;;;;;29.40;19.10;;;;;;;1.37;100.00;98538.63;5220272;28;20013;-82
2021/01/24 07:37:31;;;;;;;31.90;18.75;;;;;;;1.22;100.00;98546.81;5223238;28;20029;-79
2021/01/24 07:40:01;;;;;;;29.50;18.95;;;;;;;1.19;100.00;98553.78;5222112;28;20036;-81
2021/01/24 07:42:32;;;;;;;27.90;19.17;;;;;;;1.32;100.00;98548.22;5223006;28;20063;-81
2021/01/24 07:45:03;;;;;;;35.05;19.13;;;;;;;1.44;100.00;98559.84;5204712;28;20032;-79
2021/01/24 07:47:33;;;;;;;29.00;18.10;;;;;;;1.52;100.00;98553.56;5223382;28;20029;-80
2021/01/24 07:50:04;;;;;;;29.80;18.25;;;;;;;1.79;100.00;98565.56;5222909;28;20054;-79
2021/01/24 07:52:34;;;;;;;28.90;18.00;;;;;;;1.50;100.00;98569.94;5222541;28;20419;-83
2021/01/24 07:55:05;;;;;;;25.27;17.17;;;;;;;1.48;100.00;98572.59;5223071;28;20025;-80
2021/01/24 07:57:38;;;;;;;27.23;17.65;;;;;;;1.63;100.00;98573.81;5222602;28;20115;-79
2021/01/24 08:00:08;;;;;;;29.27;17.80;;;;;;;1.50;100.00;98573.38;5223103;28;20036;-79
2021/01/24 08:02:39;;;;;;;27.13;17.48;;;;;;;1.52;100.00;98576.75;5219439;28;20028;-78
2021/01/24 08:05:10;;;;;;;29.02;18.75;;;;;;;1.68;100.00;98577.94;5221130;28;20029;-78
2021/01/24 08:07:40;;;;;;;28.30;17.63;;;;;;;1.88;100.00;98581.56;5222204;28;20025;-80
2021/01/24 08:10:11;;;;;;;26.85;17.80;;;;;;;1.70;100.00;98590.72;5221711;28;20028;-79
2021/01/24 08:12:41;;;;;;;29.35;18.88;;;;;;;1.74;100.00;98593.16;5222026;28;20032;-78
2021/01/24 08:15:12;;;;;;;29.20;18.17;;;;;;;1.91;100.00;98596.03;5222102;28;20028;-78
2021/01/24 08:17:43;;;;;;;29.98;19.20;;;;;;;1.69;100.00;98589.91;5203269;28;20017;-82
2021/01/24 08:20:14;;;;;;;30.75;19.45;;;;;;;1.93;100.00;98599.41;5222223;28;20606;-79
2021/01/24 08:22:44;;;;;;;31.15;20.20;;;;;;;1.89;100.00;98600.41;5222138;28;20032;-78
2021/01/24 08:25:16;;;;;;;32.40;19.73;;;;;;;1.92;100.00;98608.00;5221601;28;20035;-81
2021/01/24 08:27:47;;;;;;;30.48;19.90;;;;;;;1.91;100.00;98608.91;5218601;28;20036;-82
2021/01/24 08:30:20;;;;;;;33.65;21.50;;;;;;;1.96;100.00;98612.19;5226874;28;20032;-79
2021/01/24 08:32:51;;;;;;;34.63;21.23;;;;;;;2.09;100.00;98613.44;5221548;28;20025;-79
2021/01/24 08:35:21;;;;;;;32.05;20.73;;;;;;;2.04;100.00;98611.06;5215578;28;20044;-80
2021/01/24 08:37:52;;;;;;;32.00;21.77;;;;;;;2.17;100.00;98619.22;5220069;28;20043;-79
2021/01/24 08:40:30;;;;;;;33.35;21.15;;;;;;;2.23;100.00;98617.28;5220480;28;20120;-80
2021/01/24 08:43:02;;;;;;;33.22;21.45;;;;;;;2.25;99.30;98622.34;5219577;28;20017;-79
2021/01/24 08:45:33;;;;;;;31.20;21.00;;;;;;;2.50;100.00;98624.03;5220220;28;20431;-79
2021/01/24 08:48:05;;;;;;;32.30;21.38;;;;;;;2.54;99.58;98624.78;5220887;28;20598;-79
2021/01/24 08:50:38;;;;;;;31.38;20.85;;;;;;;2.66;99.27;98619.22;5221703;28;20033;-79
2021/01/24 08:53:09;;;;;;;33.00;21.38;;;;;;;2.55;98.73;98621.31;5220944;28;20025;-79
2021/01/24 08:55:49;;;;;;;33.97;22.13;;;;;;;2.18;100.00;98626.03;5221727;28;20480;-80
2021/01/24 08:58:26;;;;;;;30.45;20.65;;;;;;;2.60;100.00;98632.28;5220850;28;20025;-80
2021/01/24 09:01:09;;;;;;;33.20;22.08;;;;;;;2.57;99.70;98634.97;5218963;28;20021;-80
2021/01/24 09:03:40;;;;;;;31.52;20.90;;;;;;;2.45;99.39;98632.81;5203989;28;20029;-81
2021/01/24 09:06:15;;;;;;;34.45;21.90;;;;;;;2.51;99.76;98627.47;5222481;28;20048;-82
2021/01/24 09:08:48;;;;;;;29.52;20.50;;;;;;;2.33;100.00;98626.34;5224845;28;20029;-80
2021/01/24 09:11:19;;;;;;;32.70;21.55;;;;;;;1.98;100.00;98634.41;5222111;28;20033;-80
2021/01/24 09:13:50;;;;;;;36.85;24.45;;;;;;;1.90;100.00;98640.69;5221606;28;20021;-79
2021/01/24 09:16:20;;;;;;;33.13;22.70;;;;;;;1.74;100.00;98639.50;5221089;28;20029;-78
2021/01/24 09:18:52;;;;;;;35.67;23.65;;;;;;;1.57;100.00;98646.91;5227396;28;20021;-82
2021/01/24 09:21:22;;;;;;;35.75;23.45;;;;;;;1.72;100.00;98651.59;5228901;28;20086;-82
2021/01/24 09:23:53;;;;;;;35.13;23.13;;;;;;;1.77;100.00;98654.03;5228272;28;20120;-82
2021/01/24 09:26:24;;;;;;;36.05;22.38;;;;;;;1.68;100.00;98652.56;5222398;28;20079;-80
2021/01/24 09:28:55;;;;;;;33.55;21.67;;;;;;;1.67;100.00;98653.47;5221730;28;20044;-80
2021/01/24 09:31:25;;;;;;;34.88;21.85;;;;;;;1.79;100.00;98655.66;5222825;28;20032;-79
2021/01/24 09:33:55;;;;;;;33.35;21.73;;;;;;;1.67;100.00;98653.47;5220335;28;20013;-81
2021/01/24 09:36:26;;;;;;;35.65;22.80;;;;;;;1.83;100.00;98664.97;5222318;28;20162;-81
2021/01/24 09:38:56;;;;;;;34.25;22.17;;;;;;;1.83;100.00;98667.53;5203922;28;20024;-81
2021/01/24 09:41:26;;;;;;;37.92;22.10;;;;;;;1.85;100.00;98673.47;5224047;28;20141;-80
2021/01/24 09:43:57;;;;;;;34.17;21.80;;;;;;;1.76;100.00;98676.34;5214813;28;20032;-80
2021/01/24 09:46:28;;;;;;;34.33;21.10;;;;;;;1.88;100.00;98676.81;5223469;28;20080;-79
2021/01/24 09:48:59;;;;;;;35.92;20.75;;;;;;;1.69;100.00;98672.28;5223085;28;20033;-80
2021/01/24 09:51:29;;;;;;;35.03;21.23;;;;;;;1.88;100.00;98669.09;5229878;28;20036;-81
2021/01/24 09:54:00;;;;;;;30.83;19.80;;;;;;;1.90;100.00;98676.75;5226221;28;20017;-81
2021/01/24 09:56:30;;;;;;;32.10;19.70;;;;;;;1.89;100.00;98681.06;5225145;28;20025;-80
2021/01/24 09:59:01;;;;;;;35.45;20.88;;;;;;;1.95;100.00;98680.00;5226696;28;20076;-80
2021/01/24 10:01:31;;;;;;;33.25;20.23;;;;;;;2.08;100.00;98687.31;5227727;28;20056;-80
2021/01/24 10:04:01;;;;;;;35.85;20.08;;;;;;;1.97;100.00;98686.81;5225950;28;20310;-80
2021/01/24 10:06:33;;;;;;;34.80;20.15;;;;;;;1.70;100.00;98683.41;5226312;28;20039;-81
2021/01/24 10:09:04;;;;;;;38.92;22.23;;;;;;;1.69;100.00;98687.72;5225502;28;20028;-80
2021/01/24 10:11:35;;;;;;;35.42;21.02;;;;;;;1.78;100.00;98690.00;5226325;28;20021;-81
2021/01/24 10:14:05;;;;;;;38.90;21.90;;;;;;;1.77;100.00;98684.91;5226491;28;20518;-80
2021/01/24 10:16:36;;;;;;;39.55;21.55;;;;;;;1.92;100.00;98695.56;5234380;28;20562;-80
2021/01/24 10:19:06;;;;;;;38.20;21.20;;;;;;;1.75;100.00;98687.53;5244285;28;20020;-80
2021/01/24 10:21:36;;;;;;;34.47;20.50;;;;;;;1.90;100.00;98692.19;5225738;28;20040;-80
2021/01/24 10:24:07;;;;;;;35.13;21.17;;;;;;;1.99;100.00;98692.75;5226567;28;20091;-80
2021/01/24 10:26:37;;;;;;;34.35;20.05;;;;;;;2.19;100.00;98690.38;5228209;28;20029;-80
2021/01/24 10:29:08;;;;;;;33.60;19.98;;;;;;;2.18;100.00;98693.84;5226594;28;20087;-80
2021/01/24 10:31:38;;;;;;;30.85;18.92;;;;;;;2.16;100.00;98694.81;5227125;28;20017;-80
2021/01/24 10:34:08;;;;;;;35.15;20.70;;;;;;;2.15;100.00;98698.28;5230179;28;20051;-80
2021/01/24 10:36:38;;;;;;;32.97;19.95;;;;;;;2.04;100.00;98700.34;5224486;28;20518;-80
2021/01/24 10:39:09;;;;;;;32.53;18.75;;;;;;;2.30;100.00;98695.22;5226176;28;20043;-79
2021/01/24 10:41:39;;;;;;;34.95;19.77;;;;;;;2.48;100.00;98704.91;5225789;28;20025;-80
2021/01/24 10:44:09;;;;;;;32.17;19.05;;;;;;;2.64;100.00;98708.63;5221060;28;20512;-80
2021/01/24 10:46:39;;;;;;;28.33;17.67;;;;;;;2.76;100.00;98708.22;5225952;28;20024;-81
2021/01/24 10:49:11;;;;;;;29.63;18.20;;;;;;;2.81;100.00;98707.16;5227710;28;20036;-81
2021/01/24 10:51:41;;;;;;;28.75;18.33;;;;;;;2.58;100.00;98719.16;5208526;28;20021;-79
2021/01/24 10:54:11;;;;;;;32.22;19.65;;;;;;;2.47;100.00;98716.94;5225735;28;20036;-81
2021/01/24 10:56:41;;;;;;;27.80;16.95;;;;;;;2.81;100.00;98722.63;5236355;28;20029;-82
2021/01/24 10:59:13;;;;;;;29.48;17.75;;;;;;;2.96;100.00;98719.53;5229237;28;20033;-83
2021/01/24 11:01:43;;;;;;;28.70;17.40;;;;;;;2.79;100.00;98721.84;5227390;28;20051;-81
2021/01/24 11:04:13;;;;;;;31.65;17.17;;;;;;;2.59;100.00;98726.00;5230737;28;20028;-81
2021/01/24 11:06:43;;;;;;;29.08;17.35;;;;;;;2.85;100.00;98733.69;5212693;28;20028;-82
2021/01/24 11:09:14;;;;;;;29.15;17.25;;;;;;;2.64;100.00;98726.66;5224400;28;20546;-80
2021/01/24 11:11:44;;;;;;;28.45;17.10;;;;;;;2.78;100.00;98732.22;5206756;28;20032;-80
2021/01/24 11:14:14;;;;;;;28.52;17.50;;;;;;;2.97;100.00;98728.94;5223897;28;20063;-80
2021/01/24 11:16:45;;;;;;;26.90;16.48;;;;;;;3.06;100.00;98730.38;5223197;28;20029;-80
2021/01/24 11:19:15;;;;;;;25.63;15.65;;;;;;;2.92;100.00;98724.84;5223822;28;20027;-81
2021/01/24 11:21:45;;;;;;;25.58;15.50;;;;;;;3.11;100.00;98731.03;5223738;28;20394;-80
2021/01/24 11:24:16;;;;;;;25.67;15.80;;;;;;;3.12;100.00;98741.31;5223809;28;20017;-80
2021/01/24 11:26:47;;;;;;;26.70;16.00;;;;;;;3.21;100.00;98740.97;5225211;28;20403;-84
2021/01/24 11:29:18;;;;;;;24.67;15.45;;;;;;;3.26;100.00;98739.09;5225830;28;20033;-80
2021/01/24 11:31:48;;;;;;;22.33;14.07;;;;;;;3.17;100.00;98741.16;5223685;28;20095;-80
2021/01/24 11:34:18;;;;;;;24.40;14.50;;;;;;;3.15;100.00;98732.59;5235322;28;20052;-79
2021/01/24 11:36:48;;;;;;;21.80;14.35;;;;;;;3.35;100.00;98737.94;5227958;28;20024;-80
2021/01/24 11:39:20;;;;;;;21.08;13.55;;;;;;;3.29;100.00;98748.44;5218381;28;20473;-79